sensor_id;sensor_type;location;lat;lon;timestamp;P1;durP1;ratioP1;P2;durP2;ratioP2
68888;SDS011;55930;47.412;8.790;2023-05-16T00:02:13;11.60;;;8.67;;
68888;SDS011;55930;47.412;8.790;2023-05-16T00:05:35;11.57;;;9.80;;
68888;SDS011;55930;47.412;8.790;2023-05-16T00:08:55;11.13;;;9.38;;
68888;SDS011;55930;47.412;8.790;2023-05-16T00:12:16;10.70;;;9.60;;
68888;SDS011;55930;47.412;8.790;2023-05-16T00:15:36;5.83;;;5.07;;
68888;SDS011;55930;47.412;8.790;2023-05-16T00:18:57;6.20;;;5.18;;
68888;SDS011;55930;47.412;8.790;2023-05-16T00:22:21;7.45;;;5.38;;
68888;SDS011;55930;47.412;8.790;2023-05-16T00:25:42;8.27;;;6.00;;
68888;SDS011;55930;47.412;8.790;2023-05-16T00:29:03;6.85;;;5.85;;
68888;SDS011;55930;47.412;8.790;2023-05-16T00:32:24;6.93;;;5.90;;
68888;SDS011;55930;47.412;8.790;2023-05-16T00:35:44;7.37;;;5.77;;
68888;SDS011;55930;47.412;8.790;2023-05-16T00:39:08;7.18;;;5.63;;
68888;SDS011;55930;47.412;8.790;2023-05-16T00:42:30;6.68;;;6.05;;
68888;SDS011;55930;47.412;8.790;2023-05-16T00:45:51;11.50;;;5.85;;
68888;SDS011;55930;47.412;8.790;2023-05-16T00:49:11;6.87;;;5.97;;
68888;SDS011;55930;47.412;8.790;2023-05-16T00:52:32;6.83;;;5.67;;
68888;SDS011;55930;47.412;8.790;2023-05-16T00:55:52;11.57;;;6.30;;
68888;SDS011;55930;47.412;8.790;2023-05-16T00:59:15;8.10;;;6.47;;
68888;SDS011;55930;47.412;8.790;2023-05-16T01:02:36;6.97;;;6.20;;
68888;SDS011;55930;47.412;8.790;2023-05-16T01:05:59;6.35;;;5.65;;
68888;SDS011;55930;47.412;8.790;2023-05-16T01:09:19;7.05;;;5.72;;
68888;SDS011;55930;47.412;8.790;2023-05-16T01:12:44;6.90;;;6.05;;
68888;SDS011;55930;47.412;8.790;2023-05-16T01:23:39;7.55;;;6.20;;
68888;SDS011;55930;47.412;8.790;2023-05-16T01:27:10;10.10;;;7.22;;
68888;SDS011;55930;47.412;8.790;2023-05-16T01:30:34;11.57;;;7.70;;
68888;SDS011;55930;47.412;8.790;2023-05-16T01:33:58;10.55;;;8.40;;
68888;SDS011;55930;47.412;8.790;2023-05-16T01:41:18;13.52;;;9.20;;
68888;SDS011;55930;47.412;8.790;2023-05-16T01:44:59;11.85;;;8.85;;
68888;SDS011;55930;47.412;8.790;2023-05-16T01:48:34;11.07;;;8.48;;
68888;SDS011;55930;47.412;8.790;2023-05-16T01:52:10;11.13;;;7.88;;
68888;SDS011;55930;47.412;8.790;2023-05-16T01:59:03;8.48;;;6.93;;
68888;SDS011;55930;47.412;8.790;2023-05-16T02:02:24;7.85;;;6.72;;
68888;SDS011;55930;47.412;8.790;2023-05-16T02:05:44;10.33;;;8.93;;
68888;SDS011;55930;47.412;8.790;2023-05-16T02:09:05;8.90;;;8.00;;
68888;SDS011;55930;47.412;8.790;2023-05-16T02:12:25;8.63;;;7.50;;
68888;SDS011;55930;47.412;8.790;2023-05-16T02:15:46;12.00;;;8.27;;
68888;SDS011;55930;47.412;8.790;2023-05-16T02:19:06;10.67;;;7.30;;
68888;SDS011;55930;47.412;8.790;2023-05-16T02:22:27;12.20;;;7.47;;
68888;SDS011;55930;47.412;8.790;2023-05-16T02:25:47;7.50;;;6.70;;
68888;SDS011;55930;47.412;8.790;2023-05-16T02:29:10;9.75;;;7.00;;
68888;SDS011;55930;47.412;8.790;2023-05-16T02:32:31;9.63;;;8.13;;
68888;SDS011;55930;47.412;8.790;2023-05-16T02:35:52;9.63;;;7.88;;
68888;SDS011;55930;47.412;8.790;2023-05-16T02:39:13;12.32;;;8.00;;
68888;SDS011;55930;47.412;8.790;2023-05-16T02:42:33;11.00;;;8.10;;
68888;SDS011;55930;47.412;8.790;2023-05-16T02:45:54;10.03;;;7.63;;
68888;SDS011;55930;47.412;8.790;2023-05-16T02:49:14;9.20;;;8.20;;
68888;SDS011;55930;47.412;8.790;2023-05-16T02:52:35;11.93;;;8.60;;
68888;SDS011;55930;47.412;8.790;2023-05-16T02:55:55;19.03;;;13.77;;
68888;SDS011;55930;47.412;8.790;2023-05-16T02:59:15;15.47;;;11.93;;
68888;SDS011;55930;47.412;8.790;2023-05-16T03:02:36;16.77;;;13.43;;
68888;SDS011;55930;47.412;8.790;2023-05-16T03:05:56;15.70;;;12.10;;
68888;SDS011;55930;47.412;8.790;2023-05-16T03:09:19;10.98;;;9.50;;
68888;SDS011;55930;47.412;8.790;2023-05-16T03:12:40;16.10;;;10.43;;
68888;SDS011;55930;47.412;8.790;2023-05-16T03:16:00;13.30;;;11.90;;
68888;SDS011;55930;47.412;8.790;2023-05-16T03:19:21;15.20;;;12.83;;
68888;SDS011;55930;47.412;8.790;2023-05-16T03:22:41;20.00;;;14.03;;
68888;SDS011;55930;47.412;8.790;2023-05-16T03:26:04;16.77;;;14.35;;
68888;SDS011;55930;47.412;8.790;2023-05-16T03:29:24;16.90;;;14.67;;
68888;SDS011;55930;47.412;8.790;2023-05-16T03:32:46;17.23;;;14.38;;
68888;SDS011;55930;47.412;8.790;2023-05-16T03:36:08;19.10;;;15.30;;
68888;SDS011;55930;47.412;8.790;2023-05-16T03:39:29;20.15;;;15.98;;
68888;SDS011;55930;47.412;8.790;2023-05-16T03:42:50;19.73;;;16.07;;
68888;SDS011;55930;47.412;8.790;2023-05-16T03:46:10;22.03;;;17.17;;
68888;SDS011;55930;47.412;8.790;2023-05-16T03:49:31;19.97;;;16.47;;
68888;SDS011;55930;47.412;8.790;2023-05-16T03:52:51;21.10;;;17.03;;
68888;SDS011;55930;47.412;8.790;2023-05-16T03:59:33;22.00;;;17.10;;
68888;SDS011;55930;47.412;8.790;2023-05-16T04:02:54;27.60;;;19.70;;
68888;SDS011;55930;47.412;8.790;2023-05-16T04:06:14;31.70;;;21.43;;
68888;SDS011;55930;47.412;8.790;2023-05-16T04:09:34;25.47;;;20.37;;
68888;SDS011;55930;47.412;8.790;2023-05-16T04:12:57;25.60;;;20.25;;
68888;SDS011;55930;47.412;8.790;2023-05-16T04:16:18;23.07;;;18.37;;
68888;SDS011;55930;47.412;8.790;2023-05-16T04:19:38;20.63;;;18.27;;
68888;SDS011;55930;47.412;8.790;2023-05-16T04:22:59;24.20;;;16.70;;
68888;SDS011;55930;47.412;8.790;2023-05-16T04:26:19;18.83;;;16.80;;
68888;SDS011;55930;47.412;8.790;2023-05-16T04:29:41;20.05;;;17.50;;
68888;SDS011;55930;47.412;8.790;2023-05-16T04:33:03;23.63;;;17.73;;
68888;SDS011;55930;47.412;8.790;2023-05-16T04:36:23;20.23;;;15.97;;
68888;SDS011;55930;47.412;8.790;2023-05-16T04:39:44;18.40;;;15.53;;
68888;SDS011;55930;47.412;8.790;2023-05-16T04:43:04;19.20;;;15.87;;
68888;SDS011;55930;47.412;8.790;2023-05-16T04:46:25;18.23;;;14.30;;
68888;SDS011;55930;47.412;8.790;2023-05-16T04:49:46;21.47;;;16.27;;
68888;SDS011;55930;47.412;8.790;2023-05-16T04:53:06;19.10;;;16.20;;
68888;SDS011;55930;47.412;8.790;2023-05-16T04:56:26;17.93;;;15.80;;
68888;SDS011;55930;47.412;8.790;2023-05-16T04:59:47;17.33;;;14.57;;
68888;SDS011;55930;47.412;8.790;2023-05-16T05:03:07;16.77;;;14.50;;
68888;SDS011;55930;47.412;8.790;2023-05-16T05:06:28;16.50;;;14.80;;
68888;SDS011;55930;47.412;8.790;2023-05-16T05:09:48;14.47;;;12.57;;
68888;SDS011;55930;47.412;8.790;2023-05-16T05:13:12;15.23;;;13.13;;
68888;SDS011;55930;47.412;8.790;2023-05-16T05:16:33;17.40;;;13.32;;
68888;SDS011;55930;47.412;8.790;2023-05-16T05:19:53;14.68;;;13.18;;
68888;SDS011;55930;47.412;8.790;2023-05-16T05:23:14;15.20;;;13.40;;
68888;SDS011;55930;47.412;8.790;2023-05-16T05:26:34;14.50;;;12.70;;
68888;SDS011;55930;47.412;8.790;2023-05-16T05:30:06;14.90;;;12.60;;
68888;SDS011;55930;47.412;8.790;2023-05-16T05:33:27;16.20;;;11.70;;
68888;SDS011;55930;47.412;8.790;2023-05-16T05:36:48;14.45;;;12.55;;
68888;SDS011;55930;47.412;8.790;2023-05-16T05:40:08;12.23;;;10.93;;
68888;SDS011;55930;47.412;8.790;2023-05-16T05:43:34;12.48;;;11.23;;
68888;SDS011;55930;47.412;8.790;2023-05-16T05:46:54;13.30;;;11.48;;
68888;SDS011;55930;47.412;8.790;2023-05-16T05:50:16;11.93;;;10.73;;
68888;SDS011;55930;47.412;8.790;2023-05-16T05:53:36;12.30;;;10.93;;
68888;SDS011;55930;47.412;8.790;2023-05-16T05:56:57;12.47;;;11.17;;
68888;SDS011;55930;47.412;8.790;2023-05-16T06:00:17;18.17;;;11.20;;
68888;SDS011;55930;47.412;8.790;2023-05-16T06:03:38;13.63;;;11.73;;
68888;SDS011;55930;47.412;8.790;2023-05-16T06:07:01;13.17;;;11.83;;
68888;SDS011;55930;47.412;8.790;2023-05-16T06:10:22;18.40;;;13.20;;
68888;SDS011;55930;47.412;8.790;2023-05-16T06:13:42;15.87;;;13.03;;
68888;SDS011;55930;47.412;8.790;2023-05-16T06:17:02;16.73;;;13.83;;
68888;SDS011;55930;47.412;8.790;2023-05-16T06:20:23;16.03;;;14.40;;
68888;SDS011;55930;47.412;8.790;2023-05-16T06:23:46;21.75;;;16.77;;
68888;SDS011;55930;47.412;8.790;2023-05-16T06:27:07;18.73;;;16.67;;
68888;SDS011;55930;47.412;8.790;2023-05-16T06:30:27;19.30;;;17.25;;
68888;SDS011;55930;47.412;8.790;2023-05-16T06:33:48;21.43;;;15.83;;
68888;SDS011;55930;47.412;8.790;2023-05-16T06:37:08;18.43;;;16.50;;
68888;SDS011;55930;47.412;8.790;2023-05-16T06:40:29;22.77;;;19.17;;
68888;SDS011;55930;47.412;8.790;2023-05-16T06:43:49;22.80;;;18.43;;
68888;SDS011;55930;47.412;8.790;2023-05-16T06:47:10;24.55;;;19.77;;
68888;SDS011;55930;47.412;8.790;2023-05-16T06:50:31;22.90;;;18.80;;
68888;SDS011;55930;47.412;8.790;2023-05-16T06:53:51;25.97;;;20.50;;
68888;SDS011;55930;47.412;8.790;2023-05-16T06:57:12;23.10;;;19.60;;
68888;SDS011;55930;47.412;8.790;2023-05-16T07:00:32;26.80;;;20.60;;
68888;SDS011;55930;47.412;8.790;2023-05-16T07:03:53;23.13;;;20.17;;
68888;SDS011;55930;47.412;8.790;2023-05-16T07:07:13;26.07;;;20.67;;
68888;SDS011;55930;47.412;8.790;2023-05-16T07:10:34;23.02;;;20.52;;
68888;SDS011;55930;47.412;8.790;2023-05-16T07:13:55;24.85;;;20.27;;
68888;SDS011;55930;47.412;8.790;2023-05-16T07:17:15;23.23;;;18.80;;
68888;SDS011;55930;47.412;8.790;2023-05-16T07:20:35;28.73;;;21.27;;
68888;SDS011;55930;47.412;8.790;2023-05-16T07:23:58;27.08;;;20.73;;
68888;SDS011;55930;47.412;8.790;2023-05-16T07:27:18;24.93;;;20.93;;
68888;SDS011;55930;47.412;8.790;2023-05-16T07:30:39;29.53;;;21.57;;
68888;SDS011;55930;47.412;8.790;2023-05-16T07:33:59;27.13;;;22.53;;
68888;SDS011;55930;47.412;8.790;2023-05-16T07:37:20;28.13;;;21.30;;
68888;SDS011;55930;47.412;8.790;2023-05-16T07:40:40;23.43;;;19.43;;
68888;SDS011;55930;47.412;8.790;2023-05-16T07:44:01;25.77;;;21.03;;
68888;SDS011;55930;47.412;8.790;2023-05-16T07:47:21;26.00;;;20.53;;
68888;SDS011;55930;47.412;8.790;2023-05-16T07:50:42;42.53;;;22.40;;
68888;SDS011;55930;47.412;8.790;2023-05-16T07:54:03;24.55;;;19.55;;
68888;SDS011;55930;47.412;8.790;2023-05-16T07:57:23;22.90;;;19.80;;
68888;SDS011;55930;47.412;8.790;2023-05-16T08:00:44;24.00;;;18.83;;
68888;SDS011;55930;47.412;8.790;2023-05-16T08:04:04;25.48;;;19.85;;
68888;SDS011;55930;47.412;8.790;2023-05-16T08:07:25;22.27;;;18.95;;
68888;SDS011;55930;47.412;8.790;2023-05-16T08:10:48;21.63;;;18.88;;
68888;SDS011;55930;47.412;8.790;2023-05-16T08:14:08;21.90;;;18.90;;
68888;SDS011;55930;47.412;8.790;2023-05-16T08:17:28;24.20;;;18.87;;
68888;SDS011;55930;47.412;8.790;2023-05-16T08:20:49;19.33;;;16.57;;
68888;SDS011;55930;47.412;8.790;2023-05-16T08:24:12;21.25;;;18.70;;
68888;SDS011;55930;47.412;8.790;2023-05-16T08:27:33;21.38;;;17.70;;
68888;SDS011;55930;47.412;8.790;2023-05-16T08:30:53;21.63;;;18.07;;
68888;SDS011;55930;47.412;8.790;2023-05-16T08:34:13;19.53;;;16.97;;
68888;SDS011;55930;47.412;8.790;2023-05-16T08:37:34;23.27;;;17.25;;
68888;SDS011;55930;47.412;8.790;2023-05-16T08:40:55;19.60;;;16.92;;
68888;SDS011;55930;47.412;8.790;2023-05-16T08:44:16;19.37;;;16.80;;
68888;SDS011;55930;47.412;8.790;2023-05-16T08:47:40;19.50;;;16.55;;
68888;SDS011;55930;47.412;8.790;2023-05-16T08:51:03;22.13;;;17.20;;
68888;SDS011;55930;47.412;8.790;2023-05-16T08:54:26;20.15;;;17.25;;
68888;SDS011;55930;47.412;8.790;2023-05-16T09:01:13;19.27;;;15.15;;
68888;SDS011;55930;47.412;8.790;2023-05-16T09:04:34;19.23;;;15.00;;
68888;SDS011;55930;47.412;8.790;2023-05-16T09:07:56;18.52;;;16.42;;
68888;SDS011;55930;47.412;8.790;2023-05-16T09:11:18;18.42;;;16.42;;
68888;SDS011;55930;47.412;8.790;2023-05-16T09:14:40;24.50;;;17.40;;
68888;SDS011;55930;47.412;8.790;2023-05-16T09:18:04;18.65;;;16.65;;
68888;SDS011;55930;47.412;8.790;2023-05-16T09:21:28;18.05;;;16.15;;
68888;SDS011;55930;47.412;8.790;2023-05-16T09:24:50;18.48;;;16.25;;
68888;SDS011;55930;47.412;8.790;2023-05-16T09:28:11;23.98;;;17.70;;
68888;SDS011;55930;47.412;8.790;2023-05-16T09:31:32;22.17;;;16.33;;
68888;SDS011;55930;47.412;8.790;2023-05-16T09:34:57;18.40;;;16.33;;
68888;SDS011;55930;47.412;8.790;2023-05-16T09:38:17;20.50;;;16.65;;
68888;SDS011;55930;47.412;8.790;2023-05-16T09:41:38;18.13;;;16.10;;
68888;SDS011;55930;47.412;8.790;2023-05-16T09:44:58;19.70;;;14.93;;
68888;SDS011;55930;47.412;8.790;2023-05-16T09:48:19;16.85;;;14.98;;
68888;SDS011;55930;47.412;8.790;2023-05-16T09:51:40;19.08;;;15.30;;
68888;SDS011;55930;47.412;8.790;2023-05-16T09:55:05;18.95;;;15.30;;
68888;SDS011;55930;47.412;8.790;2023-05-16T09:58:27;17.48;;;15.35;;
68888;SDS011;55930;47.412;8.790;2023-05-16T10:01:50;19.40;;;15.38;;
68888;SDS011;55930;47.412;8.790;2023-05-16T10:05:12;16.92;;;14.75;;
68888;SDS011;55930;47.412;8.790;2023-05-16T10:08:36;16.35;;;14.65;;
68888;SDS011;55930;47.412;8.790;2023-05-16T10:12:01;17.48;;;15.52;;
68888;SDS011;55930;47.412;8.790;2023-05-16T10:15:23;17.70;;;15.88;;
68888;SDS011;55930;47.412;8.790;2023-05-16T10:18:44;19.40;;;15.98;;
68888;SDS011;55930;47.412;8.790;2023-05-16T10:22:05;17.30;;;14.90;;
68888;SDS011;55930;47.412;8.790;2023-05-16T10:25:31;18.52;;;15.15;;
68888;SDS011;55930;47.412;8.790;2023-05-16T10:28:52;17.80;;;14.02;;
68888;SDS011;55930;47.412;8.790;2023-05-16T10:32:15;18.15;;;16.08;;
68888;SDS011;55930;47.412;8.790;2023-05-16T10:35:37;21.55;;;16.73;;
68888;SDS011;55930;47.412;8.790;2023-05-16T10:38:58;17.27;;;15.25;;
68888;SDS011;55930;47.412;8.790;2023-05-16T10:42:22;19.23;;;15.80;;
68888;SDS011;55930;47.412;8.790;2023-05-16T10:45:43;18.73;;;16.13;;
68888;SDS011;55930;47.412;8.790;2023-05-16T10:49:24;16.67;;;13.75;;
68888;SDS011;55930;47.412;8.790;2023-05-16T10:52:46;18.40;;;14.27;;
68888;SDS011;55930;47.412;8.790;2023-05-16T10:56:11;16.38;;;13.93;;
68888;SDS011;55930;47.412;8.790;2023-05-16T10:59:39;15.53;;;11.63;;
68888;SDS011;55930;47.412;8.790;2023-05-16T11:03:04;12.07;;;10.55;;
68888;SDS011;55930;47.412;8.790;2023-05-16T11:06:26;10.93;;;9.52;;
68888;SDS011;55930;47.412;8.790;2023-05-16T11:13:53;12.15;;;10.88;;
68888;SDS011;55930;47.412;8.790;2023-05-16T11:17:20;12.90;;;11.53;;
68888;SDS011;55930;47.412;8.790;2023-05-16T11:20:43;11.25;;;9.48;;
68888;SDS011;55930;47.412;8.790;2023-05-16T11:27:53;14.95;;;12.43;;
68888;SDS011;55930;47.412;8.790;2023-05-16T11:31:14;15.63;;;14.02;;
68888;SDS011;55930;47.412;8.790;2023-05-16T11:34:37;16.52;;;14.25;;
68888;SDS011;55930;47.412;8.790;2023-05-16T11:37:58;18.38;;;16.20;;
68888;SDS011;55930;47.412;8.790;2023-05-16T11:41:19;19.23;;;16.92;;
68888;SDS011;55930;47.412;8.790;2023-05-16T11:44:41;20.27;;;18.00;;
68888;SDS011;55930;47.412;8.790;2023-05-16T11:48:01;21.23;;;18.97;;
68888;SDS011;55930;47.412;8.790;2023-05-16T11:51:27;22.65;;;20.05;;
68888;SDS011;55930;47.412;8.790;2023-05-16T11:54:48;22.00;;;19.17;;
68888;SDS011;55930;47.412;8.790;2023-05-16T11:58:09;22.27;;;19.92;;
68888;SDS011;55930;47.412;8.790;2023-05-16T12:01:34;24.83;;;20.65;;
68888;SDS011;55930;47.412;8.790;2023-05-16T12:04:59;24.25;;;21.75;;
68888;SDS011;55930;47.412;8.790;2023-05-16T12:08:19;25.25;;;21.45;;
68888;SDS011;55930;47.412;8.790;2023-05-16T12:11:46;24.95;;;21.50;;
68888;SDS011;55930;47.412;8.790;2023-05-16T12:15:07;24.90;;;21.00;;
68888;SDS011;55930;47.412;8.790;2023-05-16T12:18:28;24.48;;;20.45;;
68888;SDS011;55930;47.412;8.790;2023-05-16T12:21:51;25.40;;;22.70;;
68888;SDS011;55930;47.412;8.790;2023-05-16T12:25:22;23.42;;;20.90;;
68888;SDS011;55930;47.412;8.790;2023-05-16T12:28:51;27.02;;;20.42;;
68888;SDS011;55930;47.412;8.790;2023-05-16T12:32:18;26.08;;;20.45;;
68888;SDS011;55930;47.412;8.790;2023-05-16T12:35:42;26.30;;;18.55;;
68888;SDS011;55930;47.412;8.790;2023-05-16T12:39:03;22.02;;;18.88;;
68888;SDS011;55930;47.412;8.790;2023-05-16T12:42:25;22.97;;;19.43;;
68888;SDS011;55930;47.412;8.790;2023-05-16T12:45:52;21.38;;;19.08;;
68888;SDS011;55930;47.412;8.790;2023-05-16T12:49:14;21.05;;;18.55;;
68888;SDS011;55930;47.412;8.790;2023-05-16T12:52:34;20.98;;;18.83;;
68888;SDS011;55930;47.412;8.790;2023-05-16T12:55:55;23.47;;;18.20;;
68888;SDS011;55930;47.412;8.790;2023-05-16T12:59:15;23.23;;;19.50;;
68888;SDS011;55930;47.412;8.790;2023-05-16T13:02:36;23.55;;;20.67;;
68888;SDS011;55930;47.412;8.790;2023-05-16T13:06:00;21.40;;;18.65;;
68888;SDS011;55930;47.412;8.790;2023-05-16T13:09:22;19.23;;;17.13;;
68888;SDS011;55930;47.412;8.790;2023-05-16T13:12:43;18.47;;;16.27;;
68888;SDS011;55930;47.412;8.790;2023-05-16T13:16:04;17.15;;;15.00;;
68888;SDS011;55930;47.412;8.790;2023-05-16T13:19:25;16.30;;;14.60;;
68888;SDS011;55930;47.412;8.790;2023-05-16T13:22:45;14.87;;;13.07;;
68888;SDS011;55930;47.412;8.790;2023-05-16T13:26:06;17.33;;;15.43;;
68888;SDS011;55930;47.412;8.790;2023-05-16T13:29:26;17.10;;;15.27;;
68888;SDS011;55930;47.412;8.790;2023-05-16T13:32:46;14.93;;;13.33;;
68888;SDS011;55930;47.412;8.790;2023-05-16T13:36:07;15.55;;;13.65;;
68888;SDS011;55930;47.412;8.790;2023-05-16T13:39:28;14.67;;;12.60;;
68888;SDS011;55930;47.412;8.790;2023-05-16T13:42:48;16.23;;;13.17;;
68888;SDS011;55930;47.412;8.790;2023-05-16T13:46:08;14.27;;;12.80;;
68888;SDS011;55930;47.412;8.790;2023-05-16T13:49:29;13.60;;;12.20;;
68888;SDS011;55930;47.412;8.790;2023-05-16T13:52:50;13.93;;;12.00;;
68888;SDS011;55930;47.412;8.790;2023-05-16T13:56:11;15.73;;;11.65;;
68888;SDS011;55930;47.412;8.790;2023-05-16T13:59:31;12.60;;;11.30;;
68888;SDS011;55930;47.412;8.790;2023-05-16T14:02:52;14.45;;;11.05;;
68888;SDS011;55930;47.412;8.790;2023-05-16T14:06:12;13.20;;;11.87;;
68888;SDS011;55930;47.412;8.790;2023-05-16T14:09:33;12.47;;;11.20;;
68888;SDS011;55930;47.412;8.790;2023-05-16T14:12:58;11.77;;;10.57;;
68888;SDS011;55930;47.412;8.790;2023-05-16T14:16:19;14.02;;;11.18;;
68888;SDS011;55930;47.412;8.790;2023-05-16T14:19:42;12.13;;;10.88;;
68888;SDS011;55930;47.412;8.790;2023-05-16T14:23:02;13.57;;;12.10;;
68888;SDS011;55930;47.412;8.790;2023-05-16T14:26:22;14.23;;;12.73;;
68888;SDS011;55930;47.412;8.790;2023-05-16T14:29:44;15.55;;;12.45;;
68888;SDS011;55930;47.412;8.790;2023-05-16T14:33:05;14.57;;;12.10;;
68888;SDS011;55930;47.412;8.790;2023-05-16T14:36:26;15.23;;;13.33;;
68888;SDS011;55930;47.412;8.790;2023-05-16T14:39:46;17.80;;;13.43;;
68888;SDS011;55930;47.412;8.790;2023-05-16T14:43:08;14.95;;;13.15;;
68888;SDS011;55930;47.412;8.790;2023-05-16T14:46:29;15.15;;;13.30;;
68888;SDS011;55930;47.412;8.790;2023-05-16T14:49:52;14.80;;;13.30;;
68888;SDS011;55930;47.412;8.790;2023-05-16T14:53:13;15.32;;;12.43;;
68888;SDS011;55930;47.412;8.790;2023-05-16T14:56:36;14.25;;;12.75;;
68888;SDS011;55930;47.412;8.790;2023-05-16T14:59:56;13.50;;;11.50;;
68888;SDS011;55930;47.412;8.790;2023-05-16T15:03:17;12.57;;;10.52;;
68888;SDS011;55930;47.412;8.790;2023-05-16T15:06:37;10.23;;;8.37;;
68888;SDS011;55930;47.412;8.790;2023-05-16T15:09:58;10.37;;;7.93;;
68888;SDS011;55930;47.412;8.790;2023-05-16T15:13:18;10.17;;;7.73;;
68888;SDS011;55930;47.412;8.790;2023-05-16T15:16:39;7.57;;;6.80;;
68888;SDS011;55930;47.412;8.790;2023-05-16T15:19:59;7.00;;;6.30;;
68888;SDS011;55930;47.412;8.790;2023-05-16T15:23:20;7.13;;;5.47;;
68888;SDS011;55930;47.412;8.790;2023-05-16T15:26:40;5.27;;;4.67;;
68888;SDS011;55930;47.412;8.790;2023-05-16T15:30:01;6.70;;;4.97;;
68888;SDS011;55930;47.412;8.790;2023-05-16T15:33:21;6.57;;;5.40;;
68888;SDS011;55930;47.412;8.790;2023-05-16T15:36:41;6.20;;;5.43;;
68888;SDS011;55930;47.412;8.790;2023-05-16T15:40:02;7.30;;;5.67;;
68888;SDS011;55930;47.412;8.790;2023-05-16T15:43:23;6.88;;;5.30;;
68888;SDS011;55930;47.412;8.790;2023-05-16T15:46:44;7.57;;;5.17;;
68888;SDS011;55930;47.412;8.790;2023-05-16T15:50:04;5.50;;;4.67;;
68888;SDS011;55930;47.412;8.790;2023-05-16T15:53:25;6.82;;;4.82;;
68888;SDS011;55930;47.412;8.790;2023-05-16T15:56:48;6.78;;;4.28;;
68888;SDS011;55930;47.412;8.790;2023-05-16T16:00:08;7.00;;;4.60;;
68888;SDS011;55930;47.412;8.790;2023-05-16T16:03:29;6.50;;;5.53;;
68888;SDS011;55930;47.412;8.790;2023-05-16T16:06:50;5.25;;;4.63;;
68888;SDS011;55930;47.412;8.790;2023-05-16T16:10:10;5.90;;;4.43;;
68888;SDS011;55930;47.412;8.790;2023-05-16T16:13:31;5.33;;;4.30;;
68888;SDS011;55930;47.412;8.790;2023-05-16T16:16:52;7.07;;;5.25;;
68888;SDS011;55930;47.412;8.790;2023-05-16T16:20:12;5.27;;;4.47;;
68888;SDS011;55930;47.412;8.790;2023-05-16T16:23:33;6.55;;;4.55;;
68888;SDS011;55930;47.412;8.790;2023-05-16T16:26:56;6.63;;;3.87;;
68888;SDS011;55930;47.412;8.790;2023-05-16T16:30:16;4.53;;;3.88;;
68888;SDS011;55930;47.412;8.790;2023-05-16T16:33:36;4.40;;;3.47;;
68888;SDS011;55930;47.412;8.790;2023-05-16T16:36:57;3.77;;;3.10;;
68888;SDS011;55930;47.412;8.790;2023-05-16T16:40:20;4.57;;;3.10;;
68888;SDS011;55930;47.412;8.790;2023-05-16T16:43:40;3.20;;;2.70;;
68888;SDS011;55930;47.412;8.790;2023-05-16T16:47:01;3.57;;;3.03;;
68888;SDS011;55930;47.412;8.790;2023-05-16T16:50:21;9.13;;;4.07;;
68888;SDS011;55930;47.412;8.790;2023-05-16T16:53:41;5.77;;;4.20;;
68888;SDS011;55930;47.412;8.790;2023-05-16T16:57:02;4.97;;;3.43;;
68888;SDS011;55930;47.412;8.790;2023-05-16T17:00:24;4.82;;;2.92;;
68888;SDS011;55930;47.412;8.790;2023-05-16T17:03:45;4.93;;;4.23;;
68888;SDS011;55930;47.412;8.790;2023-05-16T17:07:05;4.73;;;2.77;;
68888;SDS011;55930;47.412;8.790;2023-05-16T17:10:26;3.42;;;3.05;;
68888;SDS011;55930;47.412;8.790;2023-05-16T17:13:47;4.93;;;3.20;;
68888;SDS011;55930;47.412;8.790;2023-05-16T17:17:08;5.60;;;3.80;;
68888;SDS011;55930;47.412;8.790;2023-05-16T17:20:29;5.30;;;3.60;;
68888;SDS011;55930;47.412;8.790;2023-05-16T17:23:49;5.13;;;3.73;;
68888;SDS011;55930;47.412;8.790;2023-05-16T17:27:10;4.23;;;3.83;;
68888;SDS011;55930;47.412;8.790;2023-05-16T17:30:31;5.25;;;4.40;;
68888;SDS011;55930;47.412;8.790;2023-05-16T17:33:54;5.30;;;4.43;;
68888;SDS011;55930;47.412;8.790;2023-05-16T17:37:14;6.10;;;5.28;;
68888;SDS011;55930;47.412;8.790;2023-05-16T17:40:37;8.18;;;5.85;;
68888;SDS011;55930;47.412;8.790;2023-05-16T17:44:00;6.38;;;5.30;;
68888;SDS011;55930;47.412;8.790;2023-05-16T17:47:20;10.27;;;6.27;;
68888;SDS011;55930;47.412;8.790;2023-05-16T17:50:41;7.07;;;6.37;;
68888;SDS011;55930;47.412;8.790;2023-05-16T17:54:04;10.35;;;7.13;;
68888;SDS011;55930;47.412;8.790;2023-05-16T17:57:24;9.67;;;7.77;;
68888;SDS011;55930;47.412;8.790;2023-05-16T18:00:45;11.07;;;8.90;;
68888;SDS011;55930;47.412;8.790;2023-05-16T18:04:06;12.33;;;7.57;;
68888;SDS011;55930;47.412;8.790;2023-05-16T18:07:27;10.70;;;8.10;;
68888;SDS011;55930;47.412;8.790;2023-05-16T18:10:47;10.50;;;7.90;;
68888;SDS011;55930;47.412;8.790;2023-05-16T18:14:08;11.47;;;8.40;;
68888;SDS011;55930;47.412;8.790;2023-05-16T18:17:28;9.30;;;7.73;;
68888;SDS011;55930;47.412;8.790;2023-05-16T18:20:48;13.80;;;7.97;;
68888;SDS011;55930;47.412;8.790;2023-05-16T18:24:10;8.05;;;6.75;;
68888;SDS011;55930;47.412;8.790;2023-05-16T18:27:32;8.90;;;6.32;;
68888;SDS011;55930;47.412;8.790;2023-05-16T18:30:52;9.43;;;6.80;;
68888;SDS011;55930;47.412;8.790;2023-05-16T18:34:12;7.60;;;6.00;;
68888;SDS011;55930;47.412;8.790;2023-05-16T18:37:46;7.63;;;5.50;;
68888;SDS011;55930;47.412;8.790;2023-05-16T18:41:07;7.20;;;5.53;;
68888;SDS011;55930;47.412;8.790;2023-05-16T18:44:27;6.03;;;5.37;;
68888;SDS011;55930;47.412;8.790;2023-05-16T18:47:47;5.77;;;5.00;;
68888;SDS011;55930;47.412;8.790;2023-05-16T18:51:08;7.37;;;4.87;;
68888;SDS011;55930;47.412;8.790;2023-05-16T18:54:28;5.57;;;4.77;;
68888;SDS011;55930;47.412;8.790;2023-05-16T18:57:49;6.73;;;4.47;;
68888;SDS011;55930;47.412;8.790;2023-05-16T19:01:09;6.00;;;4.40;;
68888;SDS011;55930;47.412;8.790;2023-05-16T19:04:29;6.37;;;4.27;;
68888;SDS011;55930;47.412;8.790;2023-05-16T19:07:50;6.97;;;5.17;;
68888;SDS011;55930;47.412;8.790;2023-05-16T19:11:15;6.90;;;4.70;;
68888;SDS011;55930;47.412;8.790;2023-05-16T19:14:36;7.05;;;5.15;;
68888;SDS011;55930;47.412;8.790;2023-05-16T19:17:59;8.38;;;5.88;;
68888;SDS011;55930;47.412;8.790;2023-05-16T19:21:20;9.98;;;5.75;;
68888;SDS011;55930;47.412;8.790;2023-05-16T19:24:40;6.83;;;5.40;;
68888;SDS011;55930;47.412;8.790;2023-05-16T19:28:01;8.23;;;5.63;;
68888;SDS011;55930;47.412;8.790;2023-05-16T19:31:21;10.43;;;6.17;;
68888;SDS011;55930;47.412;8.790;2023-05-16T19:34:44;9.30;;;6.57;;
68888;SDS011;55930;47.412;8.790;2023-05-16T19:38:04;7.17;;;6.10;;
68888;SDS011;55930;47.412;8.790;2023-05-16T19:41:25;10.97;;;6.93;;
68888;SDS011;55930;47.412;8.790;2023-05-16T19:44:45;11.03;;;6.47;;
68888;SDS011;55930;47.412;8.790;2023-05-16T19:48:06;9.47;;;6.07;;
68888;SDS011;55930;47.412;8.790;2023-05-16T19:51:27;10.38;;;6.25;;
68888;SDS011;55930;47.412;8.790;2023-05-16T19:54:48;8.93;;;6.13;;
68888;SDS011;55930;47.412;8.790;2023-05-16T19:58:08;7.77;;;6.13;;
68888;SDS011;55930;47.412;8.790;2023-05-16T20:01:28;9.63;;;5.63;;
68888;SDS011;55930;47.412;8.790;2023-05-16T20:04:49;9.13;;;6.18;;
68888;SDS011;55930;47.412;8.790;2023-05-16T20:08:10;9.43;;;6.13;;
68888;SDS011;55930;47.412;8.790;2023-05-16T20:11:31;10.75;;;5.85;;
68888;SDS011;55930;47.412;8.790;2023-05-16T20:14:51;9.47;;;6.23;;
68888;SDS011;55930;47.412;8.790;2023-05-16T20:18:16;12.00;;;6.20;;
68888;SDS011;55930;47.412;8.790;2023-05-16T20:21:37;10.57;;;6.03;;